createdAt,value
2018-04-07T00:01:58.827Z,5.27
2018-04-07T00:04:26.714Z,11.73
2018-04-07T00:06:53.203Z,3.20
2018-04-07T00:09:19.631Z,3.00
2018-04-07T00:11:46.066Z,5.17
2018-04-07T00:14:12.493Z,5.47
2018-04-07T00:16:39.732Z,3.50
2018-04-07T00:19:06.150Z,2.93
2018-04-07T00:21:32.578Z,6.10
2018-04-07T00:23:59.040Z,5.23
2018-04-07T00:26:25.510Z,5.20
2018-04-07T00:28:51.963Z,5.77
2018-04-07T00:31:19.138Z,4.30
2018-04-07T00:33:45.559Z,3.63
2018-04-07T00:36:12.045Z,3.97
2018-04-07T00:38:38.598Z,7.53
2018-04-07T00:41:05.120Z,4.13
2018-04-07T00:43:31.592Z,4.40
2018-04-07T00:45:58.095Z,4.97
2018-04-07T00:48:34.109Z,3.30
2018-04-07T00:51:06.709Z,2.80
2018-04-07T00:53:33.147Z,6.53
2018-04-07T00:55:59.571Z,5.10
2018-04-07T00:58:26.045Z,4.93
2018-04-07T01:00:52.514Z,4.70
2018-04-07T01:03:19.002Z,5.07
2018-04-07T01:05:45.426Z,6.10
2018-04-07T01:08:12.562Z,3.67
2018-04-07T01:10:38.961Z,4.23
2018-04-07T01:13:05.528Z,6.13
2018-04-07T01:15:31.945Z,6.13
2018-04-07T01:17:58.333Z,3.87
2018-04-07T01:20:25.484Z,6.40
2018-04-07T01:22:52.674Z,8.77
2018-04-07T01:25:19.161Z,3.60
2018-04-07T01:27:45.562Z,3.60
2018-04-07T01:30:11.974Z,3.87
2018-04-07T01:32:38.421Z,5.50
2018-04-07T01:35:05.618Z,6.27
2018-04-07T01:37:32.017Z,4.97
2018-04-07T01:39:58.447Z,3.63
2018-04-07T01:42:24.882Z,3.43
2018-04-07T01:44:51.351Z,6.00
2018-04-07T01:47:18.581Z,4.03
2018-04-07T01:49:44.981Z,5.20
2018-04-07T01:52:11.390Z,6.73
2018-04-07T01:54:37.815Z,5.77
2018-04-07T01:57:04.252Z,4.53
2018-04-07T01:59:30.687Z,4.07
2018-04-07T02:01:57.071Z,5.20
2018-04-07T02:04:23.568Z,7.73
2018-04-07T02:06:50.004Z,4.60
2018-04-07T02:09:16.410Z,4.93
2018-04-07T02:11:42.862Z,4.70
2018-04-07T02:14:09.326Z,5.23
2018-04-07T02:16:36.582Z,4.03
2018-04-07T02:19:02.964Z,8.03
2018-04-07T02:21:29.346Z,3.57
2018-04-07T02:23:55.777Z,4.93
2018-04-07T02:26:22.210Z,3.90
2018-04-07T02:28:48.659Z,3.27
2018-04-07T02:31:15.138Z,5.43
2018-04-07T02:33:41.607Z,4.23
2018-04-07T02:36:08.081Z,5.10
2018-04-07T02:38:34.507Z,5.73
2018-04-07T02:41:00.955Z,5.03
2018-04-07T02:43:27.385Z,4.73
2018-04-07T02:45:53.812Z,6.90
2018-04-07T02:48:20.231Z,7.43
2018-04-07T02:50:47.443Z,5.20
2018-04-07T02:53:13.876Z,4.53
2018-04-07T02:55:40.271Z,5.00
2018-04-07T02:58:06.743Z,5.60
2018-04-07T03:00:33.184Z,5.07
2018-04-07T03:02:59.631Z,5.00
2018-04-07T03:05:26.106Z,5.20
2018-04-07T03:07:52.526Z,3.83
2018-04-07T03:10:19.004Z,5.33
2018-04-07T03:12:45.562Z,9.60
2018-04-07T03:15:13.465Z,4.53
2018-04-07T03:17:39.972Z,5.60
2018-04-07T03:20:06.509Z,5.60
2018-04-07T03:22:32.945Z,3.70
2018-04-07T03:24:59.420Z,6.17
2018-04-07T03:27:27.992Z,3.63
2018-04-07T03:29:54.454Z,5.00
2018-04-07T03:32:20.925Z,4.70
2018-04-07T03:34:48.941Z,4.90
2018-04-07T03:37:16.084Z,5.37
2018-04-07T03:39:42.474Z,7.87
2018-04-07T03:42:08.908Z,3.73
2018-04-07T03:44:35.311Z,9.00
2018-04-07T03:47:02.563Z,6.00
2018-04-07T03:49:28.975Z,5.60
2018-04-07T03:51:56.878Z,7.53
2018-04-07T03:54:23.393Z,4.77
2018-04-07T03:56:49.866Z,5.80
2018-04-07T03:59:16.283Z,4.67
2018-04-07T04:01:42.702Z,6.30
2018-04-07T04:04:09.122Z,7.00
2018-04-07T04:06:36.283Z,5.27
2018-04-07T04:09:02.786Z,4.50
2018-04-07T04:11:29.215Z,5.90
2018-04-07T04:13:55.696Z,5.90
2018-04-07T04:16:23.652Z,5.63
2018-04-07T04:18:50.238Z,4.10
2018-04-07T04:21:17.435Z,5.50
2018-04-07T04:23:43.944Z,4.93
2018-04-07T04:26:10.522Z,7.73
2018-04-07T04:28:37.700Z,5.57
2018-04-07T04:31:06.094Z,6.03
2018-04-07T04:33:33.350Z,7.30
2018-04-07T04:35:59.957Z,5.20
2018-04-07T04:38:26.488Z,7.50
2018-04-07T04:40:53.836Z,11.03
2018-04-07T04:43:21.629Z,7.50
2018-04-07T04:45:48.187Z,8.27
2018-04-07T04:48:14.914Z,5.10
2018-04-07T04:50:41.482Z,5.43
2018-04-07T04:53:08.003Z,5.33
2018-04-07T04:55:35.290Z,4.90
2018-04-07T04:58:01.810Z,6.17
2018-04-07T05:00:29.078Z,6.47
2018-04-07T05:02:56.423Z,4.40
2018-04-07T05:05:24.634Z,6.00
2018-04-07T05:07:52.855Z,11.80
2018-04-07T05:10:19.323Z,8.33
2018-04-07T05:12:45.890Z,4.87
2018-04-07T05:15:12.405Z,6.80
2018-04-07T05:17:38.912Z,4.83
2018-04-07T05:20:06.189Z,6.43
2018-04-07T05:22:32.708Z,5.53
2018-04-07T05:24:59.151Z,7.13
2018-04-07T05:27:25.632Z,16.00
2018-04-07T05:29:52.092Z,4.80
2018-04-07T05:32:18.836Z,8.63
2018-04-07T05:34:45.322Z,4.93
2018-04-07T05:37:12.912Z,4.57
2018-04-07T05:39:39.654Z,6.33
2018-04-07T05:42:06.966Z,6.30
2018-04-07T05:44:36.263Z,13.00
2018-04-07T05:47:04.423Z,7.17
2018-04-07T05:49:31.672Z,8.03
2018-04-07T05:51:58.145Z,7.30
2018-04-07T05:54:24.653Z,5.27
2018-04-07T05:56:51.130Z,9.87
2018-04-07T05:59:18.580Z,6.07
2018-04-07T06:01:45.211Z,4.97
2018-04-07T06:04:11.750Z,7.37
2018-04-07T06:06:38.441Z,7.53
2018-04-07T06:09:05.759Z,7.57
2018-04-07T06:11:32.329Z,5.73
2018-04-07T06:13:58.969Z,7.57
2018-04-07T06:16:25.447Z,8.53
2018-04-07T06:18:52.002Z,5.40
2018-04-07T06:21:19.272Z,6.57
2018-04-07T06:23:46.468Z,8.43
2018-04-07T06:26:12.942Z,8.90
2018-04-07T06:28:39.479Z,9.40
2018-04-07T06:31:06.414Z,7.70
2018-04-07T06:33:32.988Z,9.93
2018-04-07T06:36:00.307Z,12.10
2018-04-07T06:38:26.819Z,8.73
2018-04-07T06:40:53.282Z,8.63
2018-04-07T06:43:20.629Z,7.20
2018-04-07T06:45:48.371Z,8.40
2018-04-07T06:48:14.921Z,8.33
2018-04-07T06:50:41.439Z,6.83
2018-04-07T06:53:07.971Z,7.80
2018-04-07T06:55:34.507Z,6.23
2018-04-07T06:58:09.899Z,6.20
2018-04-07T07:00:38.254Z,7.30
2018-04-07T07:03:05.548Z,7.60
2018-04-07T07:05:32.166Z,7.93
2018-04-07T07:07:58.637Z,13.33
2018-04-07T07:10:25.939Z,10.50
2018-04-07T07:12:52.403Z,11.90
2018-04-07T07:15:18.968Z,9.30
2018-04-07T07:17:45.605Z,9.10
2018-04-07T07:20:12.094Z,10.00
2018-04-07T07:22:39.570Z,9.47
2018-04-07T07:25:06.187Z,9.47
2018-04-07T07:27:33.339Z,9.07
2018-04-07T07:29:59.986Z,9.73
2018-04-07T07:32:26.602Z,11.97
2018-04-07T07:34:53.459Z,10.20
2018-04-07T07:37:20.675Z,9.57
2018-04-07T07:39:47.485Z,9.77
2018-04-07T07:42:14.213Z,11.60
2018-04-07T07:44:41.494Z,14.63
2018-04-07T07:47:08.030Z,17.00
2018-04-07T07:49:35.311Z,7.47
2018-04-07T07:52:02.743Z,11.00
2018-04-07T07:54:29.728Z,10.33
2018-04-07T07:56:56.300Z,12.03
2018-04-07T07:59:23.117Z,10.50
2018-04-07T08:01:50.491Z,9.20
2018-04-07T08:04:17.276Z,10.57
2018-04-07T08:06:43.750Z,15.63
2018-04-07T08:09:10.306Z,14.73
2018-04-07T08:11:37.643Z,13.17
2018-04-07T08:14:05.246Z,9.87
2018-04-07T08:16:32.863Z,10.37
2018-04-07T08:19:00.169Z,11.53
2018-04-07T08:21:26.675Z,10.40
2018-04-07T08:23:53.243Z,8.70
2018-04-07T08:26:19.916Z,11.67
2018-04-07T08:28:46.544Z,9.90
2018-04-07T08:31:13.153Z,10.50
2018-04-07T08:33:40.365Z,14.20
2018-04-07T08:36:06.863Z,12.20
2018-04-07T08:38:33.779Z,11.60
2018-04-07T08:41:00.332Z,12.43
2018-04-07T08:43:26.855Z,13.80
2018-04-07T08:45:53.432Z,11.07
2018-04-07T08:48:19.967Z,12.53
2018-04-07T08:50:46.757Z,12.93
2018-04-07T08:53:13.926Z,9.57
2018-04-07T08:55:40.539Z,12.20
2018-04-07T08:58:07.882Z,13.57
2018-04-07T09:00:35.489Z,10.27
2018-04-07T09:03:03.069Z,16.13
2018-04-07T09:05:30.559Z,15.30
2018-04-07T09:07:57.886Z,10.97
2018-04-07T09:10:24.403Z,11.47
2018-04-07T09:12:50.967Z,10.50
2018-04-07T09:15:17.514Z,12.00
2018-04-07T09:17:44.061Z,12.83
2018-04-07T09:20:10.608Z,16.30
2018-04-07T09:22:37.355Z,11.23
2018-04-07T09:25:03.887Z,12.17
2018-04-07T09:27:31.302Z,12.20
2018-04-07T09:29:57.778Z,15.40
2018-04-07T09:32:25.043Z,13.83
2018-04-07T09:34:52.404Z,12.60
2018-04-07T09:37:19.288Z,13.90
2018-04-07T09:39:45.810Z,20.90
2018-04-07T09:42:12.750Z,15.50
2018-04-07T09:44:39.528Z,12.50
2018-04-07T09:47:06.181Z,16.20
2018-04-07T09:49:32.721Z,16.13
2018-04-07T09:52:00.015Z,14.90
2018-04-07T09:54:27.244Z,15.33
2018-04-07T09:56:54.050Z,15.80
2018-04-07T09:59:20.601Z,13.60
2018-04-07T10:01:47.226Z,12.67
2018-04-07T10:04:13.908Z,14.60
2018-04-07T10:06:40.590Z,14.47
2018-04-07T10:09:07.983Z,16.80
2018-04-07T10:11:36.027Z,20.40
2018-04-07T10:14:02.638Z,14.17
2018-04-07T10:16:29.366Z,16.97
2018-04-07T10:18:56.173Z,21.00
2018-04-07T10:21:22.659Z,13.90
2018-04-07T10:23:49.191Z,18.27
2018-04-07T10:26:15.906Z,14.60
2018-04-07T10:28:42.475Z,15.10
2018-04-07T10:31:08.947Z,17.83
2018-04-07T10:33:36.336Z,15.73
2018-04-07T10:36:02.969Z,16.13
2018-04-07T10:38:30.361Z,14.17
2018-04-07T10:40:56.867Z,16.63
2018-04-07T10:43:24.134Z,13.70
2018-04-07T10:45:50.738Z,19.30
2018-04-07T10:48:17.807Z,14.70
2018-04-07T10:50:45.139Z,18.23
2018-04-07T10:53:11.707Z,15.87
2018-04-07T10:55:38.203Z,28.33
2018-04-07T10:58:05.384Z,22.03
2018-04-07T11:00:31.875Z,17.90
2018-04-07T11:02:58.518Z,18.50
2018-04-07T11:05:24.993Z,16.70
2018-04-07T11:07:52.207Z,16.50
2018-04-07T11:10:19.567Z,24.70
2018-04-07T11:12:46.596Z,17.63
2018-04-07T11:15:13.652Z,16.47
2018-04-07T11:17:41.318Z,22.83
2018-04-07T11:20:07.893Z,13.83
2018-04-07T11:22:34.553Z,15.23
2018-04-07T11:25:01.010Z,14.97
2018-04-07T11:27:27.936Z,20.43
2018-04-07T11:29:54.478Z,23.50
2018-04-07T11:32:21.091Z,15.53
2018-04-07T11:34:48.501Z,16.87
2018-04-07T11:37:15.103Z,21.03
2018-04-07T11:39:42.050Z,19.70
2018-04-07T11:42:08.634Z,19.33
2018-04-07T11:44:35.327Z,18.60
2018-04-07T11:47:01.866Z,23.50
2018-04-07T11:49:28.422Z,25.00
2018-04-07T11:51:54.988Z,19.30
2018-04-07T11:54:21.575Z,24.63
2018-04-07T11:56:48.483Z,18.07
2018-04-07T11:59:15.127Z,17.97
2018-04-07T12:01:41.788Z,27.90
2018-04-07T12:04:08.404Z,19.60
2018-04-07T12:06:35.753Z,18.80
2018-04-07T12:09:02.435Z,16.90
2018-04-07T12:11:29.714Z,15.50
2018-04-07T12:13:56.963Z,16.97
2018-04-07T12:16:23.640Z,17.97
2018-04-07T12:18:51.565Z,16.90
2018-04-07T12:21:19.156Z,16.57
2018-04-07T12:23:45.821Z,21.10
2018-04-07T12:26:12.399Z,19.20
2018-04-07T12:28:38.962Z,19.77
2018-04-07T12:31:05.538Z,16.70
2018-04-07T12:33:32.859Z,13.67
2018-04-07T12:35:59.501Z,18.10
2018-04-07T12:38:26.168Z,14.20
2018-04-07T12:40:53.726Z,17.83
2018-04-07T12:43:20.330Z,18.97
2018-04-07T12:45:47.594Z,18.50
2018-04-07T12:48:14.188Z,16.33
2018-04-07T12:50:40.769Z,17.90
2018-04-07T12:53:07.285Z,11.47
2018-04-07T12:55:33.996Z,17.83
2018-04-07T12:58:00.482Z,18.00
2018-04-07T13:00:26.979Z,18.77
2018-04-07T13:02:53.451Z,16.30
2018-04-07T13:05:20.169Z,16.70
2018-04-07T13:07:46.705Z,16.33
2018-04-07T13:10:13.397Z,15.97
2018-04-07T13:12:39.996Z,16.57
2018-04-07T13:15:06.491Z,16.53
2018-04-07T13:17:33.108Z,18.40
2018-04-07T13:19:59.660Z,16.90
2018-04-07T13:22:26.170Z,17.30
2018-04-07T13:24:52.751Z,16.10
2018-04-07T13:27:20.200Z,17.07
2018-04-07T13:29:46.829Z,12.53
2018-04-07T13:32:13.424Z,12.33
2018-04-07T13:34:40.043Z,10.70
2018-04-07T13:37:06.688Z,14.97
2018-04-07T13:39:33.372Z,14.80
2018-04-07T13:42:00.606Z,14.17
2018-04-07T13:44:27.144Z,15.70
2018-04-07T13:46:54.338Z,17.60
2018-04-07T13:49:21.364Z,14.67
2018-04-07T13:51:47.912Z,11.87
2018-04-07T13:54:14.470Z,10.90
2018-04-07T13:56:41.049Z,13.77
2018-04-07T13:59:07.625Z,16.67
2018-04-07T14:01:34.134Z,16.00
2018-04-07T14:04:01.458Z,13.53
2018-04-07T14:06:28.098Z,13.67
2018-04-07T14:08:54.705Z,15.63
2018-04-07T14:11:21.471Z,14.57
2018-04-07T14:13:48.958Z,14.87
2018-04-07T14:16:16.311Z,14.70
2018-04-07T14:18:42.855Z,12.47
2018-04-07T14:21:09.884Z,13.87
2018-04-07T14:23:36.482Z,15.40
2018-04-07T14:26:04.470Z,10.50
2018-04-07T14:28:31.108Z,9.07
2018-04-07T14:30:57.644Z,16.83
2018-04-07T14:33:24.127Z,12.43
2018-04-07T14:35:50.738Z,15.43
2018-04-07T14:38:17.233Z,12.27
2018-04-07T14:40:43.767Z,14.30
2018-04-07T14:43:10.581Z,12.63
2018-04-07T14:45:37.119Z,17.33
2018-04-07T14:48:03.962Z,13.03
2018-04-07T14:50:30.530Z,13.93
2018-04-07T14:52:57.134Z,13.27
2018-04-07T14:55:23.945Z,14.77
2018-04-07T14:57:50.583Z,13.40
2018-04-07T15:00:17.230Z,13.80
2018-04-07T15:02:43.926Z,13.33
2018-04-07T15:05:10.526Z,13.03
2018-04-07T15:07:37.843Z,12.40
2018-04-07T15:10:06.056Z,8.80
2018-04-07T15:12:32.707Z,12.20
2018-04-07T15:14:59.555Z,10.30
2018-04-07T15:17:26.844Z,14.40
2018-04-07T15:19:54.114Z,17.33
2018-04-07T15:22:20.658Z,12.27
2018-04-07T15:24:47.218Z,15.60
2018-04-07T15:27:13.798Z,16.70
2018-04-07T15:29:41.366Z,8.53
2018-04-07T15:32:08.254Z,8.80
2018-04-07T15:34:35.213Z,12.83
2018-04-07T15:37:02.650Z,9.80
2018-04-07T15:39:29.984Z,12.90
2018-04-07T15:41:56.540Z,13.77
2018-04-07T15:44:23.096Z,12.33
2018-04-07T15:46:49.669Z,12.73
2018-04-07T15:49:17.220Z,10.30
2018-04-07T15:51:44.272Z,14.80
2018-04-07T15:54:10.897Z,11.30
2018-04-07T15:56:37.452Z,12.53
2018-04-07T15:59:04.069Z,14.33
2018-04-07T16:01:30.687Z,12.43
2018-04-07T16:03:57.203Z,12.53
2018-04-07T16:06:25.379Z,17.27
2018-04-07T16:08:52.887Z,10.50
2018-04-07T16:11:19.481Z,10.00
2018-04-07T16:13:47.060Z,8.17
2018-04-07T16:16:13.602Z,10.90
2018-04-07T16:18:40.241Z,11.90
2018-04-07T16:21:06.721Z,19.30
2018-04-07T16:23:35.128Z,9.43
2018-04-07T16:26:01.724Z,8.93
2018-04-07T16:28:28.373Z,8.73
2018-04-07T16:30:55.628Z,8.70
2018-04-07T16:33:22.213Z,8.93
2018-04-07T16:35:49.556Z,8.57
2018-04-07T16:38:16.548Z,10.13
2018-04-07T16:40:43.263Z,11.77
2018-04-07T16:43:09.777Z,7.17
2018-04-07T16:45:36.311Z,7.83
2018-04-07T16:48:03.990Z,8.57
2018-04-07T16:50:30.546Z,6.93
2018-04-07T16:52:57.402Z,8.47
2018-04-07T16:55:23.918Z,7.03
2018-04-07T16:57:50.536Z,8.20
2018-04-07T17:00:19.009Z,5.97
2018-04-07T17:02:45.624Z,6.63
2018-04-07T17:05:12.235Z,10.50
2018-04-07T17:07:38.910Z,5.00
2018-04-07T17:10:05.512Z,7.67
2018-04-07T17:12:32.842Z,3.63
2018-04-07T17:14:59.373Z,10.97
2018-04-07T17:17:25.975Z,3.80
2018-04-07T17:19:52.485Z,7.43
2018-04-07T17:22:19.728Z,8.70
2018-04-07T17:24:46.311Z,9.07
2018-04-07T17:27:13.460Z,3.77
2018-04-07T17:29:40.066Z,16.33
2018-04-07T17:32:06.774Z,6.70
2018-04-07T17:34:33.304Z,3.33
2018-04-07T17:36:59.887Z,7.13
2018-04-07T17:39:26.321Z,8.33
2018-04-07T17:41:52.895Z,5.90
2018-04-07T17:44:20.207Z,11.10
2018-04-07T17:46:46.728Z,6.40
2018-04-07T17:49:13.507Z,15.50
2018-04-07T17:51:40.837Z,16.80
2018-04-07T17:54:08.357Z,9.97
2018-04-07T17:56:34.972Z,11.93
2018-04-07T17:59:01.566Z,7.53
2018-04-07T18:01:28.673Z,6.40
2018-04-07T18:03:55.949Z,8.40
2018-04-07T18:06:22.522Z,15.03
2018-04-07T18:08:49.839Z,15.07
2018-04-07T18:11:16.350Z,14.90
2018-04-07T18:13:42.847Z,25.93
2018-04-07T18:16:09.406Z,7.17
2018-04-07T18:18:35.981Z,9.30
2018-04-07T18:21:02.552Z,16.03
2018-04-07T18:23:29.193Z,8.97
2018-04-07T18:25:56.550Z,9.60
2018-04-07T18:28:23.350Z,7.43
2018-04-07T18:30:50.794Z,11.77
2018-04-07T18:33:17.461Z,11.00
2018-04-07T18:35:44.218Z,19.10
2018-04-07T18:38:10.921Z,11.43
2018-04-07T18:40:37.572Z,9.83
2018-04-07T18:43:04.873Z,11.13
2018-04-07T18:45:31.680Z,9.87
2018-04-07T18:47:58.210Z,11.70
2018-04-07T18:50:24.848Z,9.50
2018-04-07T18:52:51.466Z,12.40
2018-04-07T18:55:18.702Z,8.33
2018-04-07T18:57:45.113Z,15.53
2018-04-07T19:00:11.566Z,15.13
2018-04-07T19:02:37.976Z,11.33
2018-04-07T19:05:04.573Z,9.00
2018-04-07T19:07:31.145Z,9.17
2018-04-07T19:09:57.758Z,15.47
2018-04-07T19:12:24.204Z,9.03
2018-04-07T19:14:50.594Z,12.50
2018-04-07T19:17:17.088Z,29.43
2018-04-07T19:19:43.507Z,13.80
2018-04-07T19:22:10.748Z,24.57
2018-04-07T19:24:37.210Z,21.80
2018-04-07T19:27:03.683Z,28.67
2018-04-07T19:29:32.060Z,29.83
2018-04-07T19:31:58.539Z,21.30
2018-04-07T19:34:25.029Z,26.07
2018-04-07T19:36:51.466Z,23.07
2018-04-07T19:39:17.889Z,17.13
2018-04-07T19:41:44.411Z,20.37
2018-04-07T19:44:10.863Z,17.47
2018-04-07T19:46:38.140Z,14.50
2018-04-07T19:49:04.744Z,17.90
2018-04-07T19:51:31.305Z,18.13
2018-04-07T19:53:57.823Z,12.70
2018-04-07T19:56:24.391Z,15.03
2018-04-07T19:58:50.894Z,9.27
2018-04-07T20:01:17.490Z,10.40
2018-04-07T20:03:44.030Z,16.10
2018-04-07T20:06:10.433Z,9.00
2018-04-07T20:08:37.604Z,17.83
2018-04-07T20:11:04.307Z,11.57
2018-04-07T20:13:31.465Z,10.00
2018-04-07T20:15:57.854Z,12.70
2018-04-07T20:18:25.145Z,11.50
2018-04-07T20:20:51.655Z,12.80
2018-04-07T20:23:18.078Z,16.50
2018-04-07T20:25:44.772Z,23.83
2018-04-07T20:28:11.327Z,13.23
2018-04-07T20:30:37.782Z,11.77
2018-04-07T20:33:04.974Z,8.33
2018-04-07T20:35:31.391Z,15.27
2018-04-07T20:37:57.998Z,13.50
2018-04-07T20:40:24.472Z,7.70
2018-04-07T20:42:51.026Z,10.43
2018-04-07T20:45:17.456Z,15.73
2018-04-07T20:47:43.918Z,10.33
2018-04-07T20:50:10.368Z,11.17
2018-04-07T20:52:36.860Z,7.33
2018-04-07T20:55:03.347Z,13.43
2018-04-07T20:57:29.786Z,9.77
2018-04-07T20:59:57.679Z,9.37
2018-04-07T21:02:24.945Z,11.57
2018-04-07T21:04:51.367Z,15.63
2018-04-07T21:07:17.799Z,11.40
2018-04-07T21:09:44.230Z,14.17
2018-04-07T21:12:10.668Z,14.67
2018-04-07T21:14:37.083Z,11.17
2018-04-07T21:17:03.566Z,15.77
2018-04-07T21:19:29.964Z,15.27
2018-04-07T21:21:56.372Z,9.20
2018-04-07T21:24:23.614Z,13.17
2018-04-07T21:26:50.107Z,13.20
2018-04-07T21:29:17.272Z,9.50
2018-04-07T21:31:44.074Z,10.97
2018-04-07T21:34:10.471Z,10.20
2018-04-07T21:36:37.658Z,12.27
2018-04-07T21:39:05.820Z,18.00
2018-04-07T21:41:32.241Z,9.63
2018-04-07T21:43:59.383Z,9.83
2018-04-07T21:46:26.563Z,7.30
2018-04-07T21:48:52.951Z,12.43
2018-04-07T21:51:19.455Z,5.60
2018-04-07T21:53:46.591Z,18.20
2018-04-07T21:56:13.086Z,10.73
2018-04-07T21:58:39.550Z,8.80
2018-04-07T22:01:07.502Z,9.37
2018-04-07T22:03:33.889Z,14.27
2018-04-07T22:06:01.060Z,9.50
2018-04-07T22:08:27.513Z,9.90
2018-04-07T22:10:54.029Z,10.20
2018-04-07T22:13:20.494Z,15.97
2018-04-07T22:15:46.968Z,12.33
2018-04-07T22:18:13.379Z,7.10
2018-04-07T22:20:39.825Z,14.80
2018-04-07T22:23:06.270Z,9.73
2018-04-07T22:25:32.742Z,13.30
2018-04-07T22:28:00.644Z,8.07
2018-04-07T22:30:27.209Z,12.13
2018-04-07T22:32:53.785Z,10.47
2018-04-07T22:35:20.247Z,10.90
2018-04-07T22:37:46.673Z,16.20
2018-04-07T22:40:13.085Z,16.63
2018-04-07T22:42:39.574Z,11.73
2018-04-07T22:45:06.704Z,10.87
2018-04-07T22:47:33.228Z,13.30
2018-04-07T22:49:59.638Z,9.23
2018-04-07T22:52:26.060Z,15.20
2018-04-07T22:54:53.269Z,13.43
2018-04-07T22:57:19.682Z,12.67
2018-04-07T22:59:46.847Z,14.17
2018-04-07T23:02:13.997Z,11.47
2018-04-07T23:04:40.496Z,11.43
2018-04-07T23:07:06.910Z,11.53
2018-04-07T23:09:33.319Z,17.13
2018-04-07T23:12:00.467Z,9.20
2018-04-07T23:14:27.704Z,16.53
2018-04-07T23:16:54.955Z,16.90
2018-04-07T23:19:21.366Z,21.60
2018-04-07T23:21:48.491Z,15.47
2018-04-07T23:24:15.692Z,12.47
2018-04-07T23:26:42.145Z,14.77
2018-04-07T23:29:08.552Z,12.10
2018-04-07T23:31:35.068Z,10.93
2018-04-07T23:34:01.469Z,19.60
2018-04-07T23:36:28.388Z,12.83
2018-04-07T23:38:55.617Z,17.80
2018-04-07T23:41:22.037Z,13.57
2018-04-07T23:43:48.411Z,16.40
2018-04-07T23:46:15.629Z,12.40
2018-04-07T23:48:42.106Z,8.83
2018-04-07T23:51:08.530Z,10.10
2018-04-07T23:53:34.962Z,15.80
2018-04-07T23:56:01.428Z,14.17
2018-04-07T23:58:27.806Z,12.80
